sensor_id;sensor_type;location;lat;lon;timestamp;pressure;altitude;pressure_sealevel;temperature;humidity
19526;BME280;9907;42.676;26.348;2023-03-13T00:00:19;99186.19;;;6.93;53.21
19526;BME280;9907;42.676;26.348;2023-03-13T00:02:45;99190.19;;;6.99;52.96
19526;BME280;9907;42.676;26.348;2023-03-13T00:05:12;99189.34;;;6.98;52.80
19526;BME280;9907;42.676;26.348;2023-03-13T00:07:37;99189.97;;;7.02;52.86
19526;BME280;9907;42.676;26.348;2023-03-13T00:10:03;99190.69;;;7.04;52.92
19526;BME280;9907;42.676;26.348;2023-03-13T00:12:29;99192.97;;;6.97;52.41
19526;BME280;9907;42.676;26.348;2023-03-13T00:14:55;99206.34;;;6.96;52.77
19526;BME280;9907;42.676;26.348;2023-03-13T00:17:20;99201.16;;;6.94;52.46
19526;BME280;9907;42.676;26.348;2023-03-13T00:19:46;99208.59;;;6.89;52.58
19526;BME280;9907;42.676;26.348;2023-03-13T00:22:11;99211.03;;;6.92;52.33
19526;BME280;9907;42.676;26.348;2023-03-13T00:24:37;99213.38;;;6.97;52.86
19526;BME280;9907;42.676;26.348;2023-03-13T00:27:02;99216.47;;;6.91;52.64
19526;BME280;9907;42.676;26.348;2023-03-13T00:29:29;99220.41;;;6.85;52.90
19526;BME280;9907;42.676;26.348;2023-03-13T00:31:56;99216.34;;;6.92;52.60
19526;BME280;9907;42.676;26.348;2023-03-13T00:34:22;99218.91;;;6.94;52.38
19526;BME280;9907;42.676;26.348;2023-03-13T00:36:50;99224.00;;;6.84;53.09
19526;BME280;9907;42.676;26.348;2023-03-13T00:39:16;99213.81;;;6.78;53.10
19526;BME280;9907;42.676;26.348;2023-03-13T00:41:41;99213.50;;;6.82;53.02
19526;BME280;9907;42.676;26.348;2023-03-13T00:44:08;99212.75;;;6.80;53.08
19526;BME280;9907;42.676;26.348;2023-03-13T00:46:33;99216.16;;;6.82;53.06
19526;BME280;9907;42.676;26.348;2023-03-13T00:48:59;99214.56;;;6.80;53.35
19526;BME280;9907;42.676;26.348;2023-03-13T00:51:25;99212.56;;;6.71;52.94
19526;BME280;9907;42.676;26.348;2023-03-13T00:53:51;99212.47;;;6.72;53.33
19526;BME280;9907;42.676;26.348;2023-03-13T00:56:18;99211.06;;;6.79;53.61
19526;BME280;9907;42.676;26.348;2023-03-13T00:58:45;99211.28;;;6.76;53.13
19526;BME280;9907;42.676;26.348;2023-03-13T01:01:26;99207.44;;;6.80;53.19
19526;BME280;9907;42.676;26.348;2023-03-13T01:04:00;99206.66;;;6.91;52.85
19526;BME280;9907;42.676;26.348;2023-03-13T01:06:28;99211.78;;;6.94;53.03
19526;BME280;9907;42.676;26.348;2023-03-13T01:08:55;99214.00;;;6.88;52.66
19526;BME280;9907;42.676;26.348;2023-03-13T01:11:23;99206.41;;;6.70;53.23
19526;BME280;9907;42.676;26.348;2023-03-13T01:13:52;99207.91;;;6.62;53.75
19526;BME280;9907;42.676;26.348;2023-03-13T01:16:20;99221.06;;;6.63;53.83
19526;BME280;9907;42.676;26.348;2023-03-13T01:18:49;99212.16;;;6.52;54.29
19526;BME280;9907;42.676;26.348;2023-03-13T01:21:15;99223.84;;;6.49;54.95
19526;BME280;9907;42.676;26.348;2023-03-13T01:23:43;99224.69;;;6.62;54.61
19526;BME280;9907;42.676;26.348;2023-03-13T01:26:08;99227.09;;;6.78;53.58
19526;BME280;9907;42.676;26.348;2023-03-13T01:28:34;99217.34;;;6.78;53.74
19526;BME280;9907;42.676;26.348;2023-03-13T01:31:01;99221.53;;;6.57;54.24
19526;BME280;9907;42.676;26.348;2023-03-13T01:33:34;99228.53;;;6.46;54.26
19526;BME280;9907;42.676;26.348;2023-03-13T01:36:01;99227.66;;;6.58;53.81
19526;BME280;9907;42.676;26.348;2023-03-13T01:38:27;99228.41;;;6.60;54.22
19526;BME280;9907;42.676;26.348;2023-03-13T01:40:53;99233.72;;;6.47;53.99
19526;BME280;9907;42.676;26.348;2023-03-13T01:43:21;99243.78;;;6.55;53.65
19526;BME280;9907;42.676;26.348;2023-03-13T01:46:50;99255.25;;;6.55;54.22
19526;BME280;9907;42.676;26.348;2023-03-13T01:48:53;99263.09;;;6.19;54.68
19526;BME280;9907;42.676;26.348;2023-03-13T01:51:27;99266.72;;;6.30;54.96
19526;BME280;9907;42.676;26.348;2023-03-13T01:59:16;99268.31;;;6.20;54.85
19526;BME280;9907;42.676;26.348;2023-03-13T02:01:45;99270.75;;;6.23;54.53
19526;BME280;9907;42.676;26.348;2023-03-13T02:04:13;99269.38;;;6.30;54.45
19526;BME280;9907;42.676;26.348;2023-03-13T02:06:42;99274.47;;;6.33;54.38
19526;BME280;9907;42.676;26.348;2023-03-13T02:09:12;99273.94;;;6.28;55.21
19526;BME280;9907;42.676;26.348;2023-03-13T02:11:47;99276.91;;;6.24;54.88
19526;BME280;9907;42.676;26.348;2023-03-13T02:14:16;99280.72;;;6.20;55.00
19526;BME280;9907;42.676;26.348;2023-03-13T02:16:43;99288.34;;;6.12;55.08
19526;BME280;9907;42.676;26.348;2023-03-13T02:19:19;99298.13;;;6.11;55.14
19526;BME280;9907;42.676;26.348;2023-03-13T02:26:44;99319.69;;;5.93;55.46
19526;BME280;9907;42.676;26.348;2023-03-13T02:29:09;99319.09;;;6.02;55.22
19526;BME280;9907;42.676;26.348;2023-03-13T02:31:44;99328.78;;;6.15;54.96
19526;BME280;9907;42.676;26.348;2023-03-13T02:34:11;99333.78;;;6.20;54.69
19526;BME280;9907;42.676;26.348;2023-03-13T02:36:39;99332.25;;;6.03;55.62
19526;BME280;9907;42.676;26.348;2023-03-13T02:39:05;99325.13;;;5.91;55.93
19526;BME280;9907;42.676;26.348;2023-03-13T02:41:33;99333.91;;;5.92;55.45
19526;BME280;9907;42.676;26.348;2023-03-13T02:43:59;99341.03;;;5.91;55.42
19526;BME280;9907;42.676;26.348;2023-03-13T02:46:24;99341.84;;;5.92;55.36
19526;BME280;9907;42.676;26.348;2023-03-13T02:48:53;99333.91;;;5.92;56.20
19526;BME280;9907;42.676;26.348;2023-03-13T02:51:35;99346.13;;;5.94;55.64
19526;BME280;9907;42.676;26.348;2023-03-13T02:54:13;99341.88;;;5.77;56.21
19526;BME280;9907;42.676;26.348;2023-03-13T02:56:41;99347.31;;;5.62;56.42
19526;BME280;9907;42.676;26.348;2023-03-13T02:59:08;99353.22;;;5.53;57.84
19526;BME280;9907;42.676;26.348;2023-03-13T03:01:33;99359.47;;;5.52;56.80
19526;BME280;9907;42.676;26.348;2023-03-13T03:03:58;99363.16;;;5.49;57.14
19526;BME280;9907;42.676;26.348;2023-03-13T03:06:24;99361.66;;;5.45;56.96
19526;BME280;9907;42.676;26.348;2023-03-13T03:08:49;99362.78;;;5.55;56.76
19526;BME280;9907;42.676;26.348;2023-03-13T03:11:15;99370.66;;;5.43;57.38
19526;BME280;9907;42.676;26.348;2023-03-13T03:13:40;99370.47;;;5.46;57.61
19526;BME280;9907;42.676;26.348;2023-03-13T03:16:09;99361.69;;;5.31;58.66
19526;BME280;9907;42.676;26.348;2023-03-13T03:18:36;99364.16;;;5.34;58.11
19526;BME280;9907;42.676;26.348;2023-03-13T03:21:02;99358.28;;;5.43;57.72
19526;BME280;9907;42.676;26.348;2023-03-13T03:23:31;99357.41;;;5.43;58.15
19526;BME280;9907;42.676;26.348;2023-03-13T03:25:57;99357.66;;;5.52;57.77
19526;BME280;9907;42.676;26.348;2023-03-13T03:28:22;99354.13;;;5.39;58.18
19526;BME280;9907;42.676;26.348;2023-03-13T03:30:48;99349.88;;;5.22;58.46
19526;BME280;9907;42.676;26.348;2023-03-13T03:33:13;99360.75;;;5.32;58.58
19526;BME280;9907;42.676;26.348;2023-03-13T03:35:38;99363.31;;;5.19;58.65
19526;BME280;9907;42.676;26.348;2023-03-13T03:38:05;99361.06;;;5.13;58.74
19526;BME280;9907;42.676;26.348;2023-03-13T03:40:30;99363.03;;;5.10;58.82
19526;BME280;9907;42.676;26.348;2023-03-13T03:42:56;99355.84;;;5.12;58.31
19526;BME280;9907;42.676;26.348;2023-03-13T03:45:22;99352.44;;;5.24;57.85
19526;BME280;9907;42.676;26.348;2023-03-13T03:47:47;99365.75;;;5.22;58.35
19526;BME280;9907;42.676;26.348;2023-03-13T03:50:12;99362.72;;;5.14;58.28
19526;BME280;9907;42.676;26.348;2023-03-13T03:52:38;99374.19;;;5.15;58.38
19526;BME280;9907;42.676;26.348;2023-03-13T03:55:04;99384.03;;;5.13;59.29
19526;BME280;9907;42.676;26.348;2023-03-13T03:57:29;99380.22;;;5.03;59.58
19526;BME280;9907;42.676;26.348;2023-03-13T03:59:55;99383.84;;;5.02;60.10
19526;BME280;9907;42.676;26.348;2023-03-13T04:02:20;99387.81;;;4.95;59.35
19526;BME280;9907;42.676;26.348;2023-03-13T04:04:46;99407.00;;;4.84;59.85
19526;BME280;9907;42.676;26.348;2023-03-13T04:07:11;99403.31;;;4.86;60.08
19526;BME280;9907;42.676;26.348;2023-03-13T04:09:36;99400.38;;;4.91;60.03
19526;BME280;9907;42.676;26.348;2023-03-13T04:12:02;99408.69;;;4.85;60.50
19526;BME280;9907;42.676;26.348;2023-03-13T04:14:28;99408.94;;;4.80;60.00
19526;BME280;9907;42.676;26.348;2023-03-13T04:16:53;99398.75;;;4.88;59.66
19526;BME280;9907;42.676;26.348;2023-03-13T04:19:18;99412.13;;;5.01;60.07
19526;BME280;9907;42.676;26.348;2023-03-13T04:21:44;99411.44;;;4.98;59.21
19526;BME280;9907;42.676;26.348;2023-03-13T04:24:09;99419.38;;;4.83;59.89
19526;BME280;9907;42.676;26.348;2023-03-13T04:26:35;99424.69;;;4.83;60.08
19526;BME280;9907;42.676;26.348;2023-03-13T04:29:00;99423.44;;;4.89;59.42
19526;BME280;9907;42.676;26.348;2023-03-13T04:31:26;99427.81;;;5.04;59.49
19526;BME280;9907;42.676;26.348;2023-03-13T04:33:51;99439.44;;;4.87;59.72
19526;BME280;9907;42.676;26.348;2023-03-13T04:36:17;99434.47;;;4.81;59.54
19526;BME280;9907;42.676;26.348;2023-03-13T04:38:42;99442.41;;;4.81;59.38
19526;BME280;9907;42.676;26.348;2023-03-13T04:41:08;99444.34;;;4.94;59.95
19526;BME280;9907;42.676;26.348;2023-03-13T04:43:33;99444.63;;;4.89;60.25
19526;BME280;9907;42.676;26.348;2023-03-13T04:45:58;99446.91;;;4.95;60.51
19526;BME280;9907;42.676;26.348;2023-03-13T04:48:24;99452.75;;;5.00;60.68
19526;BME280;9907;42.676;26.348;2023-03-13T04:50:49;99450.59;;;5.07;60.60
19526;BME280;9907;42.676;26.348;2023-03-13T04:53:15;99457.41;;;5.11;59.99
19526;BME280;9907;42.676;26.348;2023-03-13T04:55:40;99466.22;;;5.25;59.94
19526;BME280;9907;42.676;26.348;2023-03-13T04:58:06;99472.28;;;5.42;60.07
19526;BME280;9907;42.676;26.348;2023-03-13T05:00:32;99477.31;;;5.32;61.13
19526;BME280;9907;42.676;26.348;2023-03-13T05:02:57;99476.16;;;5.36;60.61
19526;BME280;9907;42.676;26.348;2023-03-13T05:05:23;99489.91;;;5.43;60.76
19526;BME280;9907;42.676;26.348;2023-03-13T05:07:48;99475.50;;;5.47;60.94
19526;BME280;9907;42.676;26.348;2023-03-13T05:10:14;99478.63;;;5.53;62.71
19526;BME280;9907;42.676;26.348;2023-03-13T05:12:39;99487.31;;;5.69;60.76
19526;BME280;9907;42.676;26.348;2023-03-13T05:15:05;99486.34;;;5.99;60.54
19526;BME280;9907;42.676;26.348;2023-03-13T05:17:31;99478.75;;;6.07;58.64
19526;BME280;9907;42.676;26.348;2023-03-13T05:19:56;99482.72;;;6.14;58.77
19526;BME280;9907;42.676;26.348;2023-03-13T05:22:34;99485.53;;;6.25;59.05
19526;BME280;9907;42.676;26.348;2023-03-13T05:25:00;99486.44;;;6.38;58.80
19526;BME280;9907;42.676;26.348;2023-03-13T05:27:25;99483.88;;;6.63;58.59
19526;BME280;9907;42.676;26.348;2023-03-13T05:29:51;99493.34;;;6.67;57.76
19526;BME280;9907;42.676;26.348;2023-03-13T05:32:16;99503.16;;;6.79;58.65
19526;BME280;9907;42.676;26.348;2023-03-13T05:34:42;99504.00;;;6.93;56.95
19526;BME280;9907;42.676;26.348;2023-03-13T05:37:08;99494.78;;;6.98;57.01
19526;BME280;9907;42.676;26.348;2023-03-13T05:39:33;99497.03;;;7.04;56.89
19526;BME280;9907;42.676;26.348;2023-03-13T05:41:59;99495.97;;;7.07;57.01
19526;BME280;9907;42.676;26.348;2023-03-13T05:44:24;99495.13;;;7.19;56.58
19526;BME280;9907;42.676;26.348;2023-03-13T05:46:50;99489.81;;;7.44;58.02
19526;BME280;9907;42.676;26.348;2023-03-13T05:49:15;99490.44;;;7.60;56.85
19526;BME280;9907;42.676;26.348;2023-03-13T05:51:41;99495.31;;;7.79;56.38
19526;BME280;9907;42.676;26.348;2023-03-13T05:54:06;99498.84;;;7.79;55.33
19526;BME280;9907;42.676;26.348;2023-03-13T05:56:32;99508.44;;;8.06;55.18
19526;BME280;9907;42.676;26.348;2023-03-13T05:58:57;99504.06;;;8.30;55.12
19526;BME280;9907;42.676;26.348;2023-03-13T06:01:22;99504.22;;;8.40;54.09
19526;BME280;9907;42.676;26.348;2023-03-13T06:03:48;99501.63;;;8.51;53.41
19526;BME280;9907;42.676;26.348;2023-03-13T06:06:13;99501.50;;;8.52;52.92
19526;BME280;9907;42.676;26.348;2023-03-13T06:08:39;99495.16;;;8.90;53.09
19526;BME280;9907;42.676;26.348;2023-03-13T06:11:04;99500.16;;;9.05;53.25
19526;BME280;9907;42.676;26.348;2023-03-13T06:13:30;99495.94;;;9.14;52.45
19526;BME280;9907;42.676;26.348;2023-03-13T06:15:57;99509.91;;;9.28;52.77
19526;BME280;9907;42.676;26.348;2023-03-13T06:18:24;99505.69;;;9.37;52.68
19526;BME280;9907;42.676;26.348;2023-03-13T06:20:56;99504.84;;;9.48;52.04
19526;BME280;9907;42.676;26.348;2023-03-13T06:23:22;99509.59;;;9.55;52.23
19526;BME280;9907;42.676;26.348;2023-03-13T06:25:47;99515.91;;;9.76;51.45
19526;BME280;9907;42.676;26.348;2023-03-13T06:28:13;99511.31;;;9.78;51.49
19526;BME280;9907;42.676;26.348;2023-03-13T06:30:38;99512.53;;;9.86;50.41
19526;BME280;9907;42.676;26.348;2023-03-13T06:33:04;99519.91;;;9.93;49.81
19526;BME280;9907;42.676;26.348;2023-03-13T06:35:29;99520.53;;;10.19;49.59
19526;BME280;9907;42.676;26.348;2023-03-13T06:37:55;99526.81;;;10.29;48.63
19526;BME280;9907;42.676;26.348;2023-03-13T06:40:20;99524.16;;;10.29;48.55
19526;BME280;9907;42.676;26.348;2023-03-13T06:42:45;99520.59;;;10.51;48.60
19526;BME280;9907;42.676;26.348;2023-03-13T06:45:11;99522.38;;;10.61;48.72
19526;BME280;9907;42.676;26.348;2023-03-13T06:47:36;99532.72;;;10.87;48.50
19526;BME280;9907;42.676;26.348;2023-03-13T06:50:02;99527.50;;;10.96;48.37
19526;BME280;9907;42.676;26.348;2023-03-13T06:52:27;99536.94;;;11.00;47.80
19526;BME280;9907;42.676;26.348;2023-03-13T06:54:53;99536.06;;;11.11;47.16
19526;BME280;9907;42.676;26.348;2023-03-13T06:57:18;99526.75;;;11.26;46.26
19526;BME280;9907;42.676;26.348;2023-03-13T06:59:44;99527.44;;;11.28;46.74
19526;BME280;9907;42.676;26.348;2023-03-13T07:02:10;99537.69;;;11.44;46.39
19526;BME280;9907;42.676;26.348;2023-03-13T07:04:36;99526.06;;;11.54;46.72
19526;BME280;9907;42.676;26.348;2023-03-13T07:07:02;99521.72;;;11.74;44.46
19526;BME280;9907;42.676;26.348;2023-03-13T07:09:27;99525.06;;;11.97;43.86
19526;BME280;9907;42.676;26.348;2023-03-13T07:11:53;99523.91;;;11.90;44.94
19526;BME280;9907;42.676;26.348;2023-03-13T07:14:19;99524.97;;;11.78;45.21
19526;BME280;9907;42.676;26.348;2023-03-13T07:16:45;99525.88;;;11.88;45.29
19526;BME280;9907;42.676;26.348;2023-03-13T07:19:10;99520.66;;;12.26;44.01
19526;BME280;9907;42.676;26.348;2023-03-13T07:21:36;99511.84;;;12.05;44.66
19526;BME280;9907;42.676;26.348;2023-03-13T07:24:02;99521.03;;;12.12;42.21
19526;BME280;9907;42.676;26.348;2023-03-13T07:26:28;99512.47;;;12.18;35.92
19526;BME280;9907;42.676;26.348;2023-03-13T07:28:54;99517.41;;;12.23;34.71
19526;BME280;9907;42.676;26.348;2023-03-13T07:31:20;99513.31;;;12.28;32.97
19526;BME280;9907;42.676;26.348;2023-03-13T07:33:50;99515.94;;;12.49;33.43
19526;BME280;9907;42.676;26.348;2023-03-13T07:36:21;99513.81;;;12.52;30.65
19526;BME280;9907;42.676;26.348;2023-03-13T07:38:47;99517.66;;;12.59;30.00
19526;BME280;9907;42.676;26.348;2023-03-13T07:41:13;99505.78;;;12.62;29.43
19526;BME280;9907;42.676;26.348;2023-03-13T07:43:45;99514.56;;;12.83;29.48
19526;BME280;9907;42.676;26.348;2023-03-13T07:46:13;99509.59;;;12.79;29.98
19526;BME280;9907;42.676;26.348;2023-03-13T07:48:41;99499.00;;;12.67;29.33
19526;BME280;9907;42.676;26.348;2023-03-13T07:51:11;99508.63;;;12.80;32.89
19526;BME280;9907;42.676;26.348;2023-03-13T07:53:37;99508.88;;;12.57;37.32
19526;BME280;9907;42.676;26.348;2023-03-13T07:56:05;99515.34;;;12.45;37.89
19526;BME280;9907;42.676;26.348;2023-03-13T07:58:33;99500.16;;;12.55;38.11
19526;BME280;9907;42.676;26.348;2023-03-13T08:01:06;99509.03;;;12.75;38.16
19526;BME280;9907;42.676;26.348;2023-03-13T08:03:35;99509.72;;;12.67;37.46
19526;BME280;9907;42.676;26.348;2023-03-13T08:06:07;99506.19;;;12.48;37.26
19526;BME280;9907;42.676;26.348;2023-03-13T08:08:34;99503.09;;;12.52;35.89
19526;BME280;9907;42.676;26.348;2023-03-13T08:11:08;99508.78;;;12.88;36.31
19526;BME280;9907;42.676;26.348;2023-03-13T08:13:35;99507.22;;;12.76;34.06
19526;BME280;9907;42.676;26.348;2023-03-13T08:16:08;99511.16;;;12.52;33.76
19526;BME280;9907;42.676;26.348;2023-03-13T08:18:34;99513.69;;;12.73;35.46
19526;BME280;9907;42.676;26.348;2023-03-13T08:21:14;99503.53;;;12.86;34.61
19526;BME280;9907;42.676;26.348;2023-03-13T08:23:41;99510.44;;;12.79;38.79
19526;BME280;9907;42.676;26.348;2023-03-13T08:28:38;99504.97;;;13.00;38.68
19526;BME280;9907;42.676;26.348;2023-03-13T08:31:15;99505.66;;;12.83;38.42
19526;BME280;9907;42.676;26.348;2023-03-13T08:33:43;99505.38;;;12.76;37.81
19526;BME280;9907;42.676;26.348;2023-03-13T08:36:13;99502.16;;;12.92;37.23
19526;BME280;9907;42.676;26.348;2023-03-13T08:38:39;99494.81;;;12.75;36.91
19526;BME280;9907;42.676;26.348;2023-03-13T08:41:07;99490.00;;;13.07;37.86
19526;BME280;9907;42.676;26.348;2023-03-13T08:43:36;99495.06;;;12.62;35.23
19526;BME280;9907;42.676;26.348;2023-03-13T08:46:01;99494.66;;;12.76;32.85
19526;BME280;9907;42.676;26.348;2023-03-13T08:48:27;99487.75;;;12.93;31.59
19526;BME280;9907;42.676;26.348;2023-03-13T08:51:06;99484.78;;;13.05;30.56
19526;BME280;9907;42.676;26.348;2023-03-13T08:53:32;99490.84;;;13.07;30.72
19526;BME280;9907;42.676;26.348;2023-03-13T08:55:59;99483.38;;;12.92;31.29
19526;BME280;9907;42.676;26.348;2023-03-13T08:58:24;99478.16;;;12.90;31.12
19526;BME280;9907;42.676;26.348;2023-03-13T09:00:50;99485.47;;;13.36;31.13
19526;BME280;9907;42.676;26.348;2023-03-13T09:03:16;99489.16;;;13.35;31.77
19526;BME280;9907;42.676;26.348;2023-03-13T09:05:42;99482.97;;;12.96;30.57
19526;BME280;9907;42.676;26.348;2023-03-13T09:08:08;99470.84;;;13.11;30.53
19526;BME280;9907;42.676;26.348;2023-03-13T09:10:34;99472.66;;;13.30;29.92
19526;BME280;9907;42.676;26.348;2023-03-13T09:13:01;99479.41;;;13.44;29.73
19526;BME280;9907;42.676;26.348;2023-03-13T09:15:26;99471.06;;;13.84;30.84
19526;BME280;9907;42.676;26.348;2023-03-13T09:17:52;99462.41;;;13.53;29.84
19526;BME280;9907;42.676;26.348;2023-03-13T09:20:17;99468.50;;;13.55;29.71
19526;BME280;9907;42.676;26.348;2023-03-13T09:22:44;99455.81;;;13.75;29.51
19526;BME280;9907;42.676;26.348;2023-03-13T09:25:13;99456.38;;;13.41;29.79
19526;BME280;9907;42.676;26.348;2023-03-13T09:27:39;99453.59;;;13.33;29.69
19526;BME280;9907;42.676;26.348;2023-03-13T09:30:06;99449.06;;;13.24;27.90
19526;BME280;9907;42.676;26.348;2023-03-13T09:32:32;99456.13;;;12.87;29.31
19526;BME280;9907;42.676;26.348;2023-03-13T09:34:58;99452.47;;;13.07;28.61
19526;BME280;9907;42.676;26.348;2023-03-13T09:37:24;99460.38;;;13.18;29.09
19526;BME280;9907;42.676;26.348;2023-03-13T09:39:50;99456.69;;;12.90;29.24
19526;BME280;9907;42.676;26.348;2023-03-13T09:42:18;99465.56;;;12.33;29.44
19526;BME280;9907;42.676;26.348;2023-03-13T09:44:55;99478.16;;;12.02;29.80
19526;BME280;9907;42.676;26.348;2023-03-13T09:47:45;99467.94;;;12.36;29.85
19526;BME280;9907;42.676;26.348;2023-03-13T09:50:28;99457.53;;;12.43;29.95
19526;BME280;9907;42.676;26.348;2023-03-13T09:53:03;99468.81;;;12.46;30.07
19526;BME280;9907;42.676;26.348;2023-03-13T09:55:35;99465.44;;;12.54;29.65
19526;BME280;9907;42.676;26.348;2023-03-13T09:58:22;99459.81;;;12.66;29.54
19526;BME280;9907;42.676;26.348;2023-03-13T10:01:02;99463.63;;;12.05;30.44
19526;BME280;9907;42.676;26.348;2023-03-13T10:06:00;99452.03;;;12.44;30.34
19526;BME280;9907;42.676;26.348;2023-03-13T10:08:32;99441.19;;;12.55;30.60
19526;BME280;9907;42.676;26.348;2023-03-13T10:19:30;99428.97;;;12.03;30.86
19526;BME280;9907;42.676;26.348;2023-03-13T10:21:57;99433.28;;;11.55;31.16
19526;BME280;9907;42.676;26.348;2023-03-13T10:27:04;99422.78;;;12.03;31.72
19526;BME280;9907;42.676;26.348;2023-03-13T10:29:30;99417.34;;;12.33;32.09
19526;BME280;9907;42.676;26.348;2023-03-13T10:32:04;99430.34;;;11.98;30.48
19526;BME280;9907;42.676;26.348;2023-03-13T10:34:55;99421.34;;;11.99;30.34
19526;BME280;9907;42.676;26.348;2023-03-13T10:37:32;99430.22;;;11.90;30.56
19526;BME280;9907;42.676;26.348;2023-03-13T10:40:20;99413.44;;;11.97;30.47
19526;BME280;9907;42.676;26.348;2023-03-13T10:42:59;99414.63;;;12.14;30.42
19526;BME280;9907;42.676;26.348;2023-03-13T10:45:26;99414.34;;;12.17;30.29
19526;BME280;9907;42.676;26.348;2023-03-13T10:48:26;99416.28;;;11.96;30.58
19526;BME280;9907;42.676;26.348;2023-03-13T10:50:54;99412.59;;;11.87;31.59
19526;BME280;9907;42.676;26.348;2023-03-13T10:56:22;99410.06;;;11.86;31.83
19526;BME280;9907;42.676;26.348;2023-03-13T10:58:48;99410.94;;;11.96;32.43
19526;BME280;9907;42.676;26.348;2023-03-13T11:01:24;99398.88;;;11.41;32.46
19526;BME280;9907;42.676;26.348;2023-03-13T11:03:51;99402.53;;;11.49;32.45
19526;BME280;9907;42.676;26.348;2023-03-13T11:06:32;99408.22;;;11.56;32.23
19526;BME280;9907;42.676;26.348;2023-03-13T11:09:13;99399.94;;;11.68;32.14
19526;BME280;9907;42.676;26.348;2023-03-13T11:11:54;99400.06;;;11.57;32.17
19526;BME280;9907;42.676;26.348;2023-03-13T11:14:24;99401.06;;;11.56;33.36
19526;BME280;9907;42.676;26.348;2023-03-13T11:16:51;99395.94;;;11.84;34.48
19526;BME280;9907;42.676;26.348;2023-03-13T11:22:33;99401.69;;;11.79;33.16
19526;BME280;9907;42.676;26.348;2023-03-13T11:30:58;99381.78;;;11.62;33.22
19526;BME280;9907;42.676;26.348;2023-03-13T11:33:54;99372.84;;;11.83;33.41
19526;BME280;9907;42.676;26.348;2023-03-13T11:36:38;99377.03;;;11.76;33.03
19526;BME280;9907;42.676;26.348;2023-03-13T11:48:08;99340.03;;;11.50;33.94
19526;BME280;9907;42.676;26.348;2023-03-13T11:51:16;99357.22;;;11.48;33.81
19526;BME280;9907;42.676;26.348;2023-03-13T11:56:42;99341.75;;;11.61;33.99
19526;BME280;9907;42.676;26.348;2023-03-13T12:01:59;99350.44;;;11.44;33.69
19526;BME280;9907;42.676;26.348;2023-03-13T12:04:37;99344.53;;;11.40;33.98
19526;BME280;9907;42.676;26.348;2023-03-13T12:07:16;99337.78;;;11.46;34.21
19526;BME280;9907;42.676;26.348;2023-03-13T12:09:56;99331.94;;;11.31;34.65
19526;BME280;9907;42.676;26.348;2023-03-13T12:12:42;99326.38;;;11.44;35.02
19526;BME280;9907;42.676;26.348;2023-03-13T12:15:25;99323.19;;;11.59;35.32
19526;BME280;9907;42.676;26.348;2023-03-13T12:18:03;99326.56;;;11.61;34.92
19526;BME280;9907;42.676;26.348;2023-03-13T12:23:19;99322.44;;;11.48;34.84
19526;BME280;9907;42.676;26.348;2023-03-13T12:26:17;99319.72;;;11.38;35.40
19526;BME280;9907;42.676;26.348;2023-03-13T12:28:55;99318.91;;;11.47;35.64
19526;BME280;9907;42.676;26.348;2023-03-13T12:31:27;99331.81;;;11.33;35.41
19526;BME280;9907;42.676;26.348;2023-03-13T12:36:49;99324.81;;;11.41;36.46
19526;BME280;9907;42.676;26.348;2023-03-13T12:39:39;99317.47;;;11.34;36.00
19526;BME280;9907;42.676;26.348;2023-03-13T12:45:17;99314.53;;;11.46;36.18
19526;BME280;9907;42.676;26.348;2023-03-13T12:48:02;99312.03;;;11.45;35.81
19526;BME280;9907;42.676;26.348;2023-03-13T12:50:41;99323.28;;;11.48;35.99
19526;BME280;9907;42.676;26.348;2023-03-13T12:53:40;99311.56;;;11.40;36.37
19526;BME280;9907;42.676;26.348;2023-03-13T12:56:12;99330.50;;;11.27;37.38
19526;BME280;9907;42.676;26.348;2023-03-13T12:58:53;99332.31;;;11.17;37.17
19526;BME280;9907;42.676;26.348;2023-03-13T13:01:29;99330.03;;;11.12;37.88
19526;BME280;9907;42.676;26.348;2023-03-13T13:03:59;99331.34;;;11.18;38.13
19526;BME280;9907;42.676;26.348;2023-03-13T13:06:48;99339.81;;;10.93;38.13
19526;BME280;9907;42.676;26.348;2023-03-13T13:09:20;99340.97;;;11.00;38.93
19526;BME280;9907;42.676;26.348;2023-03-13T13:11:47;99339.31;;;11.08;39.30
19526;BME280;9907;42.676;26.348;2023-03-13T13:16:58;99337.56;;;10.98;39.50
19526;BME280;9907;42.676;26.348;2023-03-13T13:24:55;99343.41;;;11.12;39.97
19526;BME280;9907;42.676;26.348;2023-03-13T13:32:51;99343.72;;;10.89;39.70
19526;BME280;9907;42.676;26.348;2023-03-13T13:35:32;99345.72;;;10.96;40.03
19526;BME280;9907;42.676;26.348;2023-03-13T13:41:03;99348.16;;;10.79;40.90
19526;BME280;9907;42.676;26.348;2023-03-13T13:43:35;99348.34;;;10.66;41.25
19526;BME280;9907;42.676;26.348;2023-03-13T13:48:40;99339.44;;;10.56;41.39
19526;BME280;9907;42.676;26.348;2023-03-13T13:56:35;99334.66;;;10.59;41.66
19526;BME280;9907;42.676;26.348;2023-03-13T13:59:20;99335.91;;;10.55;41.87
19526;BME280;9907;42.676;26.348;2023-03-13T14:07:22;99342.88;;;10.47;42.59
19526;BME280;9907;42.676;26.348;2023-03-13T14:10:20;99333.50;;;10.52;42.27
19526;BME280;9907;42.676;26.348;2023-03-13T14:12:54;99343.72;;;10.47;42.69
19526;BME280;9907;42.676;26.348;2023-03-13T14:15:28;99332.81;;;10.39;43.05
19526;BME280;9907;42.676;26.348;2023-03-13T14:18:01;99342.38;;;10.53;43.26
19526;BME280;9907;42.676;26.348;2023-03-13T14:20:54;99334.47;;;10.51;43.48
19526;BME280;9907;42.676;26.348;2023-03-13T14:23:36;99337.47;;;10.37;43.33
19526;BME280;9907;42.676;26.348;2023-03-13T14:31:35;99337.56;;;10.15;43.77
19526;BME280;9907;42.676;26.348;2023-03-13T14:34:04;99330.22;;;10.28;44.14
19526;BME280;9907;42.676;26.348;2023-03-13T14:36:52;99334.63;;;10.18;44.51
19526;BME280;9907;42.676;26.348;2023-03-13T14:42:05;99340.94;;;10.17;44.91
19526;BME280;9907;42.676;26.348;2023-03-13T14:44:32;99340.94;;;10.17;44.97
19526;BME280;9907;42.676;26.348;2023-03-13T14:47:07;99335.59;;;10.06;45.49
19526;BME280;9907;42.676;26.348;2023-03-13T14:49:33;99337.31;;;10.07;45.28
19526;BME280;9907;42.676;26.348;2023-03-13T14:57:20;99340.72;;;9.98;46.34
19526;BME280;9907;42.676;26.348;2023-03-13T14:59:48;99349.75;;;9.86;46.68
19526;BME280;9907;42.676;26.348;2023-03-13T15:07:52;99361.31;;;9.75;47.93